createdAt,value
2018-11-20T00:02:10.047Z,85.60
2018-11-20T00:05:09.733Z,85.60
2018-11-20T00:08:09.598Z,85.80
2018-11-20T00:11:09.584Z,85.90
2018-11-20T00:14:03.839Z,85.50
2018-11-20T00:17:03.916Z,85.60
2018-11-20T00:20:09.740Z,85.10
2018-11-20T00:23:09.383Z,85.70
2018-11-20T00:26:09.382Z,85.70
2018-11-20T00:29:15.709Z,86.00
2018-11-20T00:32:07.244Z,86.10
2018-11-20T00:35:06.492Z,85.60
2018-11-20T00:37:58.267Z,85.70
2018-11-20T00:40:57.670Z,86.20
2018-11-20T00:43:57.609Z,86.20
2018-11-20T00:46:57.679Z,85.90
2018-11-20T00:49:57.733Z,85.80
2018-11-20T00:52:56.210Z,85.80
2018-11-20T00:55:53.282Z,86.00
2018-11-20T00:58:45.291Z,85.90
2018-11-20T01:01:41.645Z,86.00
2018-11-20T01:04:44.723Z,86.00
2018-11-20T01:07:44.071Z,86.10
2018-11-20T01:10:43.602Z,85.80
2018-11-20T01:13:43.357Z,86.10
2018-11-20T01:16:37.851Z,86.10
2018-11-20T01:19:43.835Z,86.00
2018-11-20T01:22:43.463Z,86.50
2018-11-20T01:25:49.539Z,86.10
2018-11-20T01:28:48.915Z,86.20
2018-11-20T01:31:48.863Z,86.10
2018-11-20T01:34:43.782Z,86.30
2018-11-20T01:37:49.924Z,85.90
2018-11-20T01:40:52.634Z,86.00
2018-11-20T01:43:45.383Z,86.10
2018-11-20T01:46:45.391Z,86.20
2018-11-20T01:49:44.791Z,86.10
2018-11-20T01:52:44.413Z,86.40
2018-11-20T01:55:50.669Z,86.00
2018-11-20T01:58:50.438Z,86.40
2018-11-20T02:01:53.016Z,85.90
2018-11-20T02:04:55.911Z,86.50
2018-11-20T02:07:56.217Z,86.40
2018-11-20T02:10:56.289Z,86.20
2018-11-20T02:14:02.591Z,86.60
2018-11-20T02:17:02.032Z,86.40
2018-11-20T02:20:09.254Z,86.50
2018-11-20T02:23:16.468Z,86.30
2018-11-20T02:26:23.658Z,86.50
2018-11-20T02:29:30.855Z,86.40
2018-11-20T02:32:38.362Z,86.10
2018-11-20T02:35:36.095Z,86.80
2018-11-20T02:38:43.313Z,86.60
2018-11-20T02:41:50.509Z,86.60
2018-11-20T02:44:57.716Z,86.90
2018-11-20T02:48:04.911Z,86.60
2018-11-20T02:51:12.130Z,86.50
2018-11-20T02:54:19.330Z,86.90
2018-11-20T02:57:26.535Z,87.00
2018-11-20T03:00:33.759Z,86.60
2018-11-20T03:03:40.993Z,86.90
2018-11-20T03:06:48.168Z,86.60
2018-11-20T03:09:55.383Z,86.70
2018-11-20T03:13:02.584Z,87.00
2018-11-20T03:16:09.789Z,86.50
2018-11-20T03:19:17.008Z,86.80
2018-11-20T03:22:24.335Z,86.60
2018-11-20T03:25:50.558Z,86.60
2018-11-20T03:28:59.477Z,86.70
2018-11-20T03:32:06.692Z,87.00
2018-11-20T03:35:13.922Z,87.00
2018-11-20T03:38:21.121Z,87.00
2018-11-20T03:41:28.322Z,86.80
2018-11-20T03:44:35.518Z,87.00
2018-11-20T03:47:37.819Z,87.00
2018-11-20T03:50:45.005Z,87.00
2018-11-20T03:53:52.203Z,87.10
2018-11-20T03:56:59.418Z,86.90
2018-11-20T04:00:06.870Z,86.60
2018-11-20T04:03:14.078Z,86.80
2018-11-20T04:06:21.287Z,86.60
2018-11-20T04:09:28.485Z,86.90
2018-11-20T04:12:35.914Z,86.70
2018-11-20T04:15:43.123Z,87.30
2018-11-20T04:18:50.333Z,87.10
2018-11-20T04:21:57.534Z,86.80
2018-11-20T04:25:04.746Z,86.90
2018-11-20T04:28:11.951Z,86.90
2018-11-20T04:31:38.144Z,86.90
2018-11-20T04:34:45.352Z,86.80
2018-11-20T04:37:50.624Z,86.90
2018-11-20T04:40:46.223Z,86.60
2018-11-20T04:43:53.430Z,86.90
2018-11-20T04:47:00.628Z,86.90
2018-11-20T04:50:07.830Z,87.00
2018-11-20T04:53:15.057Z,86.50
2018-11-20T04:56:22.250Z,86.90
2018-11-20T04:59:29.457Z,87.30
2018-11-20T05:02:34.896Z,87.30
2018-11-20T05:05:42.099Z,87.20
2018-11-20T05:08:49.322Z,87.10
2018-11-20T05:11:45.686Z,87.50
2018-11-20T05:14:52.899Z,87.30
2018-11-20T05:18:00.092Z,87.00
2018-11-20T05:21:07.315Z,87.20
2018-11-20T05:24:14.498Z,87.50
2018-11-20T05:27:13.306Z,87.30
2018-11-20T05:30:20.533Z,87.80
2018-11-20T05:33:27.744Z,87.50
2018-11-20T05:36:34.942Z,87.30
2018-11-20T05:39:42.165Z,87.20
2018-11-20T05:42:49.372Z,87.40
2018-11-20T05:45:56.581Z,87.40
2018-11-20T05:49:03.779Z,87.40
2018-11-20T05:52:10.985Z,87.10
2018-11-20T05:55:18.187Z,87.00
2018-11-20T05:58:25.483Z,87.20
2018-11-20T06:01:32.728Z,87.40
2018-11-20T06:04:29.132Z,87.60
2018-11-20T06:07:36.340Z,87.50
2018-11-20T06:10:43.539Z,87.10
2018-11-20T06:13:50.766Z,87.50
2018-11-20T06:16:57.968Z,87.20
2018-11-20T06:20:05.161Z,87.30
2018-11-20T06:23:12.364Z,87.40
2018-11-20T06:26:19.579Z,87.70
2018-11-20T06:29:26.767Z,87.40
2018-11-20T06:32:33.982Z,87.70
2018-11-20T06:35:41.162Z,87.20
2018-11-20T06:38:48.615Z,87.40
2018-11-20T06:41:55.828Z,87.60
2018-11-20T06:45:03.018Z,87.10
2018-11-20T06:48:00.149Z,87.50
2018-11-20T06:51:07.363Z,87.10
2018-11-20T06:54:14.571Z,87.10
2018-11-20T06:57:21.834Z,87.20
2018-11-20T07:00:29.011Z,86.60
2018-11-20T07:03:36.213Z,86.90
2018-11-20T07:06:43.402Z,86.80
2018-11-20T07:09:50.607Z,86.40
2018-11-20T07:12:57.802Z,86.20
2018-11-20T07:16:05.236Z,86.20
2018-11-20T07:19:12.219Z,86.20
2018-11-20T07:22:08.740Z,86.00
2018-11-20T07:25:16.175Z,85.30
2018-11-20T07:28:23.388Z,85.60
2018-11-20T07:31:30.615Z,85.40
2018-11-20T07:34:37.816Z,84.80
2018-11-20T07:37:45.004Z,84.50
2018-11-20T07:40:52.208Z,84.10
2018-11-20T07:43:54.837Z,83.90
2018-11-20T07:47:01.962Z,84.00
2018-11-20T07:50:09.448Z,83.40
2018-11-20T07:53:16.881Z,83.50
2018-11-20T07:56:24.295Z,83.80
2018-11-20T07:59:23.773Z,83.80
2018-11-20T08:02:23.656Z,84.10
2018-11-20T08:05:15.574Z,83.10
2018-11-20T08:08:15.243Z,83.60
2018-11-20T08:11:15.177Z,83.60
2018-11-20T08:14:11.019Z,83.80
2018-11-20T08:17:10.890Z,83.90
2018-11-20T08:20:13.446Z,83.80
2018-11-20T08:23:13.256Z,84.30
2018-11-20T08:26:13.098Z,84.20
2018-11-20T08:29:12.633Z,84.10
2018-11-20T08:32:12.243Z,84.10
2018-11-20T08:35:12.253Z,84.60
2018-11-20T08:38:12.272Z,84.30
2018-11-20T08:41:12.300Z,84.20
2018-11-20T08:44:12.271Z,84.00
2018-11-20T08:47:05.926Z,83.60
2018-11-20T08:50:05.947Z,84.10
2018-11-20T08:53:05.701Z,83.30
2018-11-20T08:56:08.456Z,83.30
2018-11-20T08:59:08.368Z,82.90
2018-11-20T09:02:07.987Z,82.80
2018-11-20T09:05:07.497Z,83.00
2018-11-20T09:08:07.035Z,82.30
2018-11-20T09:11:06.806Z,82.30
2018-11-20T09:14:09.277Z,82.00
2018-11-20T09:17:09.252Z,81.40
2018-11-20T09:20:12.070Z,81.00
2018-11-20T09:23:09.112Z,81.30
2018-11-20T09:26:04.407Z,81.00
2018-11-20T09:29:07.445Z,80.60
2018-11-20T09:32:06.972Z,80.70
2018-11-20T09:34:55.895Z,81.00
2018-11-20T09:37:55.269Z,80.80
2018-11-20T09:40:54.738Z,80.60
2018-11-20T09:43:54.978Z,79.20
2018-11-20T09:46:57.685Z,79.60
2018-11-20T09:49:57.955Z,79.10
2018-11-20T09:52:57.957Z,79.10
2018-11-20T09:56:00.676Z,78.80
2018-11-20T09:58:51.422Z,78.80
2018-11-20T10:01:57.285Z,77.80
2018-11-20T10:04:57.651Z,77.20
2018-11-20T10:07:57.917Z,77.70
2018-11-20T10:10:53.466Z,76.90
2018-11-20T10:13:41.722Z,77.00
2018-11-20T10:16:38.945Z,75.40
2018-11-20T10:19:35.366Z,76.60
2018-11-20T10:22:29.369Z,74.80
2018-11-20T10:25:28.740Z,75.50
2018-11-20T10:28:28.525Z,75.10
2018-11-20T10:31:34.172Z,74.70
2018-11-20T10:34:33.917Z,74.20
2018-11-20T10:37:37.131Z,73.30
2018-11-20T10:40:36.929Z,73.40
2018-11-20T10:43:36.214Z,72.60
2018-11-20T10:46:30.096Z,71.10
2018-11-20T10:49:35.290Z,71.80
2018-11-20T10:52:23.511Z,72.50
2018-11-20T10:55:22.871Z,71.40
2018-11-20T10:58:22.283Z,70.50
2018-11-20T11:01:22.102Z,68.60
2018-11-20T11:04:21.539Z,67.80
2018-11-20T11:07:21.404Z,67.80
2018-11-20T11:10:10.911Z,67.50
2018-11-20T11:13:10.271Z,67.30
2018-11-20T11:16:10.304Z,66.30
2018-11-20T11:19:09.767Z,66.30
2018-11-20T11:22:09.935Z,66.10
2018-11-20T11:25:10.113Z,66.10
2018-11-20T11:28:10.349Z,65.50
2018-11-20T11:31:10.228Z,64.90
2018-11-20T11:34:10.198Z,63.80
2018-11-20T11:37:09.899Z,64.10
2018-11-20T11:40:10.004Z,64.30
2018-11-20T11:43:04.887Z,63.20
2018-11-20T11:46:04.383Z,63.50
2018-11-20T11:49:04.269Z,63.60
2018-11-20T11:52:06.732Z,63.00
2018-11-20T11:55:04.650Z,62.20
2018-11-20T11:58:01.289Z,62.80
2018-11-20T12:01:00.758Z,62.60
2018-11-20T12:06:58.885Z,61.30
2018-11-20T12:09:58.513Z,60.90
2018-11-20T12:12:58.647Z,61.80
2018-11-20T12:15:58.600Z,60.90
2018-11-20T12:18:56.910Z,60.70
2018-11-20T12:21:56.468Z,60.20
2018-11-20T12:24:56.512Z,60.80
2018-11-20T12:28:02.395Z,61.00
2018-11-20T12:30:55.367Z,61.80
2018-11-20T12:33:54.804Z,60.80
2018-11-20T12:36:54.954Z,61.20
2018-11-20T12:39:56.415Z,62.20
2018-11-20T12:42:54.730Z,61.60
2018-11-20T12:45:55.819Z,60.70
2018-11-20T12:49:00.259Z,61.20
2018-11-20T12:52:00.183Z,61.70
2018-11-20T12:54:59.729Z,62.60
2018-11-20T12:58:02.749Z,62.80
2018-11-20T13:00:54.013Z,64.00
2018-11-20T13:03:53.656Z,64.00
2018-11-20T13:06:53.471Z,64.40
2018-11-20T13:09:52.778Z,65.50
2018-11-20T13:12:48.666Z,66.30
2018-11-20T13:15:49.451Z,66.60
2018-11-20T13:18:54.193Z,67.00
2018-11-20T13:21:49.831Z,67.00
2018-11-20T13:24:47.886Z,67.20
2018-11-20T13:27:48.030Z,67.20
2018-11-20T13:30:47.708Z,68.10
2018-11-20T13:33:49.443Z,68.30
2018-11-20T13:36:53.256Z,68.30
2018-11-20T13:39:52.548Z,69.10
2018-11-20T13:42:51.862Z,68.40
2018-11-20T13:45:53.349Z,68.80
2018-11-20T13:48:53.106Z,69.50
2018-11-20T13:51:52.804Z,69.50
2018-11-20T13:54:52.262Z,70.10
2018-11-20T13:57:52.339Z,69.60
2018-11-20T14:00:55.116Z,70.20
2018-11-20T14:03:54.567Z,71.10
2018-11-20T14:06:54.619Z,70.60
2018-11-20T14:09:54.108Z,70.40
2018-11-20T14:12:57.220Z,70.00
2018-11-20T14:15:57.145Z,71.20
2018-11-20T14:18:56.828Z,71.40
2018-11-20T14:21:57.101Z,71.20
2018-11-20T14:24:57.273Z,72.10
2018-11-20T14:27:58.483Z,72.40
2018-11-20T14:31:03.113Z,71.70
2018-11-20T14:33:57.155Z,72.30
2018-11-20T14:36:57.324Z,73.40
2018-11-20T14:39:57.060Z,73.50
2018-11-20T14:42:49.129Z,73.40
2018-11-20T14:45:51.583Z,73.30
2018-11-20T14:48:51.727Z,74.10
2018-11-20T14:51:51.891Z,73.30
2018-11-20T14:54:54.998Z,73.60
2018-11-20T14:57:55.108Z,74.20
2018-11-20T15:00:49.152Z,74.20
2018-11-20T15:03:44.556Z,74.50
2018-11-20T15:06:43.985Z,74.10
2018-11-20T15:09:31.278Z,74.60
2018-11-20T15:12:38.478Z,74.70
2018-11-20T15:15:45.693Z,74.80
2018-11-20T15:18:52.897Z,75.60
2018-11-20T15:22:00.101Z,75.40
2018-11-20T15:25:07.303Z,76.30
2018-11-20T15:28:14.506Z,76.80
2018-11-20T15:31:21.707Z,77.20
2018-11-20T15:34:28.898Z,77.50
2018-11-20T15:37:36.120Z,77.70
2018-11-20T15:40:43.455Z,78.00
2018-11-20T15:43:50.677Z,77.80
2018-11-20T15:46:57.872Z,78.20
2018-11-20T15:50:05.068Z,78.70
2018-11-20T15:53:12.283Z,78.90
2018-11-20T15:56:19.492Z,79.20
2018-11-20T15:59:26.701Z,79.50
2018-11-20T16:02:33.911Z,79.80
2018-11-20T16:05:41.097Z,79.40
2018-11-20T16:08:48.319Z,79.40
2018-11-20T16:11:55.517Z,79.50
2018-11-20T16:15:02.724Z,79.90
2018-11-20T16:18:09.930Z,80.00
2018-11-20T16:21:17.131Z,80.30
2018-11-20T16:24:24.409Z,80.70
2018-11-20T16:27:31.627Z,81.00
2018-11-20T16:30:38.831Z,81.30
2018-11-20T16:33:46.044Z,82.00
2018-11-20T16:36:53.234Z,82.10
2018-11-20T16:40:00.444Z,82.10
2018-11-20T16:43:07.634Z,82.80
2018-11-20T16:46:14.843Z,83.00
2018-11-20T16:49:22.058Z,82.80
2018-11-20T16:52:29.259Z,83.50
2018-11-20T16:55:36.462Z,83.70
2018-11-20T16:58:43.710Z,83.70
2018-11-20T17:01:45.408Z,84.10
2018-11-20T17:04:52.642Z,84.20
2018-11-20T17:07:59.807Z,84.60
2018-11-20T17:10:59.305Z,84.20
2018-11-20T17:14:06.532Z,84.30
2018-11-20T17:17:13.731Z,84.30
2018-11-20T17:20:20.933Z,84.50
2018-11-20T17:23:28.125Z,84.80
2018-11-20T17:26:35.347Z,85.20
2018-11-20T17:29:42.549Z,85.20
2018-11-20T17:32:49.740Z,85.00
2018-11-20T17:35:56.955Z,85.70
2018-11-20T17:39:04.152Z,85.30
2018-11-20T17:42:11.375Z,86.00
2018-11-20T17:45:18.600Z,85.60
2018-11-20T17:48:25.807Z,86.40
2018-11-20T17:51:33.034Z,85.70
2018-11-20T17:54:40.231Z,85.60
2018-11-20T17:57:47.439Z,86.10
2018-11-20T18:00:54.658Z,86.40
2018-11-20T18:04:01.864Z,86.50
2018-11-20T18:07:09.075Z,86.60
2018-11-20T18:10:16.273Z,86.70
2018-11-20T18:13:23.487Z,86.60
2018-11-20T18:16:30.678Z,86.50
2018-11-20T18:19:37.878Z,86.40
2018-11-20T18:22:45.340Z,86.40
2018-11-20T18:25:44.817Z,86.60
2018-11-20T18:28:52.054Z,86.90
2018-11-20T18:31:59.259Z,87.10
2018-11-20T18:35:06.478Z,87.30
2018-11-20T18:38:07.658Z,87.30
2018-11-20T18:41:14.845Z,87.70
2018-11-20T18:44:22.065Z,87.30
2018-11-20T18:47:29.283Z,87.30
2018-11-20T18:50:36.481Z,87.30
2018-11-20T18:53:35.195Z,87.90
2018-11-20T18:56:42.396Z,87.50
2018-11-20T18:59:49.601Z,86.80
2018-11-20T19:02:56.813Z,87.30
2018-11-20T19:06:04.010Z,87.10
2018-11-20T19:09:11.223Z,87.50
2018-11-20T19:12:18.653Z,87.60
2018-11-20T19:15:26.604Z,87.80
2018-11-20T19:18:21.209Z,87.70
2018-11-20T19:21:28.411Z,87.90
2018-11-20T19:24:35.624Z,87.70
2018-11-20T19:27:42.837Z,87.70
2018-11-20T19:30:50.045Z,88.10
2018-11-20T19:33:57.285Z,88.20
2018-11-20T19:37:04.485Z,88.50
2018-11-20T19:40:11.689Z,88.10
2018-11-20T19:43:18.902Z,88.40
2018-11-20T19:46:26.124Z,88.00
2018-11-20T19:49:33.336Z,87.90
2018-11-20T19:52:40.551Z,88.30
2018-11-20T19:55:47.736Z,88.50
2018-11-20T19:58:54.925Z,88.60
2018-11-20T20:02:02.156Z,88.60
2018-11-20T20:05:09.350Z,88.90
2018-11-20T20:08:16.544Z,88.80
2018-11-20T20:11:23.867Z,88.90
2018-11-20T20:14:31.057Z,89.10
2018-11-20T20:17:38.263Z,89.20
2018-11-20T20:20:45.475Z,89.20
2018-11-20T20:23:52.664Z,89.10
2018-11-20T20:26:59.865Z,89.10
2018-11-20T20:30:07.085Z,89.10
2018-11-20T20:33:14.279Z,88.60
2018-11-20T20:36:21.496Z,88.70
2018-11-20T20:39:29.036Z,89.00
2018-11-20T20:42:36.241Z,88.60
2018-11-20T20:45:43.464Z,88.70
2018-11-20T20:48:50.670Z,88.60
2018-11-20T20:51:58.102Z,88.80
2018-11-20T20:55:05.293Z,88.90
2018-11-20T20:58:12.510Z,89.50
2018-11-20T21:01:19.729Z,89.30
2018-11-20T21:04:27.065Z,89.50
2018-11-20T21:07:34.286Z,89.50
2018-11-20T21:10:41.480Z,89.60
2018-11-20T21:13:44.475Z,89.60
2018-11-20T21:16:51.692Z,89.90
2018-11-20T21:19:58.890Z,90.00
2018-11-20T21:23:00.089Z,89.70
2018-11-20T21:26:05.844Z,89.60
2018-11-20T21:29:13.054Z,90.00
2018-11-20T21:32:20.249Z,90.00
2018-11-20T21:35:27.888Z,89.80
2018-11-20T21:38:35.091Z,90.00
2018-11-20T21:41:42.299Z,89.50
2018-11-20T21:44:49.504Z,89.30
2018-11-20T21:47:56.714Z,89.30
2018-11-20T21:51:03.909Z,89.60
2018-11-20T21:54:11.120Z,89.20
2018-11-20T21:57:18.340Z,89.30
2018-11-20T22:00:44.528Z,89.00
2018-11-20T22:03:52.476Z,89.00
2018-11-20T22:07:00.741Z,89.50
2018-11-20T22:10:07.950Z,89.60
2018-11-20T22:13:15.183Z,89.60
2018-11-20T22:16:17.828Z,89.50
2018-11-20T22:19:24.955Z,89.60
2018-11-20T22:22:32.156Z,89.70
2018-11-20T22:25:39.348Z,89.60
2018-11-20T22:28:46.568Z,89.50
2018-11-20T22:31:53.765Z,89.40
2018-11-20T22:35:00.977Z,89.50
2018-11-20T22:38:08.193Z,89.60
2018-11-20T22:41:15.393Z,89.90
2018-11-20T22:44:22.598Z,89.70
2018-11-20T22:47:29.822Z,89.90
2018-11-20T22:50:27.429Z,89.80
2018-11-20T22:53:34.593Z,89.60
2018-11-20T22:56:41.801Z,89.80
2018-11-20T22:59:49.022Z,90.00
2018-11-20T23:02:56.222Z,89.80
2018-11-20T23:05:54.200Z,89.60
2018-11-20T23:08:42.625Z,89.80
2018-11-20T23:11:31.078Z,89.90
2018-11-20T23:14:19.515Z,89.80
2018-11-20T23:17:07.970Z,89.90
2018-11-20T23:19:56.401Z,90.00
2018-11-20T23:22:44.833Z,89.90
2018-11-20T23:25:33.280Z,89.80
2018-11-20T23:28:21.702Z,89.80
2018-11-20T23:31:10.391Z,90.00
2018-11-20T23:33:58.817Z,90.00
2018-11-20T23:36:47.265Z,90.10
2018-11-20T23:39:35.706Z,90.20
2018-11-20T23:42:24.140Z,90.20
2018-11-20T23:45:31.353Z,90.30
2018-11-20T23:48:19.774Z,90.30
2018-11-20T23:51:08.232Z,90.40
2018-11-20T23:53:56.660Z,90.40
2018-11-20T23:56:45.095Z,90.40
2018-11-20T23:59:33.747Z,90.30
